Latest Coastal Weather Observations for Legendre Island

IDW60701

Issued at 11:02 am WST Saturday 20 December 2014 (issued every 10 minutes, with the page automatically refreshed every 10 minutes)

About coastal observations | Map of coastal stations | Coastal observations for WA | Marine services | Other Formats
Station Details ID: 004095 Name: LEGENDRE ISLAND Lat: -20.36 Lon: 116.84 Height: 29.0 m
Data from the previous 72 hours. | See also: Recent months for locations in Western Australia
Date/Time
WST
Temp

°C
Wind Pressure Rain
since 9am
mm
Weather Cloud Vis
km
Sea
Height
m
Swell
Dir
 
Speed
knots
Gust
knots
hPa Trend Height
m
Period
s
Dir
20/11:00am 30.4 WNW 13 16 1009.9 - - - - - - - - -
20/10:30am 29.6 WNW 11 14 1010.3 - - - - - - - - -
20/10:00am 29.8 WNW 9 13 1010.5 - - - - - - - - -
20/09:30am 28.7 NW 9 11 1010.6 - - - - - - - - -
20/09:00am 29.0 WNW 7 9 1010.9 - - - - - - - - -
20/08:30am 28.6 WNW 6 8 1010.9 - - - - - - - - -
20/08:00am 29.2 W 6 8 1010.7 - - - - - - - - -
20/07:30am 28.7 WSW 7 10 1010.4 - - - - - - - - -
20/07:00am 28.1 WSW 7 9 1010.1 - - - - - - - - -
20/06:30am 27.4 SW 6 8 1009.9 - - - - - - - - -
20/06:00am 25.7 SW 5 6 1009.7 - - - - - - - - -
20/05:30am 25.4 SW 7 9 1009.4 - - - - - - - - -
20/05:00am 25.4 SW 8 10 1008.9 - - - - - - - - -
20/04:30am 25.5 SW 9 11 1008.9 - - - - - - - - -
20/04:00am 25.6 SSW 9 11 1009.0 - - - - - - - - -
20/03:30am 25.9 SSW 10 12 1009.1 - - - - - - - - -
20/03:00am 25.8 SW 12 14 1008.9 - - - - - - - - -
20/02:30am 25.7 SW 11 14 1008.8 - - - - - - - - -
20/02:00am 25.4 SW 12 14 1008.9 - - - - - - - - -
20/01:30am 25.6 SW 12 14 1009.2 - - - - - - - - -
20/01:00am 25.3 SW 11 14 1009.3 - - - - - - - - -
20/12:30am 25.1 SW 9 12 1009.9 - - - - - - - - -
20/12:00am 25.3 SW 12 14 1010.4 - - - - - - - - -
 
Date/Time
WST
Temp

°C
Wind Pressure Rain
since 9am
mm
Weather Cloud Vis
km
Sea
Height
m
Swell
Dir
 
Speed
knots
Gust
knots
hPa Trend Height
m
Period
s
Dir
19/11:30pm 25.3 WSW 13 15 1010.6 - - - - - - - - -
19/11:00pm 25.5 WSW 14 16 1010.9 - - - - - - - - -
19/10:30pm 25.7 WSW 13 15 1011.1 - - - - - - - - -
19/10:00pm 25.8 W 13 16 1011.3 - - - - - - - - -
19/09:30pm 25.9 W 13 16 1011.1 - - - - - - - - -
19/09:00pm 25.8 W 13 15 1010.8 - - - - - - - - -
19/08:30pm 26.0 WNW 12 15 1010.7 - - - - - - - - -
19/08:00pm 26.0 WNW 12 14 1010.5 - - - - - - - - -
19/07:30pm 26.3 WNW 12 16 1010.0 - - - - - - - - -
19/07:00pm 26.4 WNW 12 15 1009.8 - - - - - - - - -
19/06:30pm 26.8 NW 13 16 1009.5 - - - - - - - - -
19/06:00pm 27.4 WNW 12 15 1009.3 - - - - - - - - -
19/05:30pm 27.8 NW 12 15 1009.3 - - - - - - - - -
19/05:00pm 28.0 NW 12 15 1009.3 - - - - - - - - -
19/04:30pm 28.6 NW 12 14 1009.1 - - - - - - - - -
19/04:00pm 28.8 NW 11 13 1008.9 - - - - - - - - -
19/03:30pm 29.0 NW 11 13 1008.8 - - - - - - - - -
19/03:00pm 29.9 NW 11 13 1008.9 - - - - - - - - -
19/02:30pm 29.8 WNW 11 14 1009.1 - - - - - - - - -
19/02:00pm 29.8 NW 10 12 1009.3 - - - - - - - - -
19/01:30pm 29.4 NNW 9 11 1009.5 - - - - - - - - -
19/01:00pm 29.4 NW 9 11 1009.8 - - - - - - - - -
19/12:30pm 30.3 NW 9 11 1009.8 - - - - - - - - -
19/12:00pm 29.6 NNW 9 10 1010.1 - - - - - - - - -
19/11:30am 29.4 NW 9 12 1010.4 - - - - - - - - -
19/11:00am 29.9 WNW 9 11 1010.5 - - - - - - - - -
19/10:30am 30.1 W 9 12 1010.6 - - - - - - - - -
19/10:00am 29.2 W 11 13 1010.6 - - - - - - - - -
19/09:30am 29.1 W 12 15 1010.6 - - - - - - - - -
19/09:00am 28.9 W 12 16 1010.5 - - - - - - - - -
19/08:30am 28.2 WNW 12 15 1010.5 - - - - - - - - -
19/08:00am 27.7 WNW 12 14 1010.2 - - - - - - - - -
19/07:30am 27.0 WNW 11 13 1010.0 - - - - - - - - -
19/07:00am 26.4 WNW 11 13 1009.5 - - - - - - - - -
19/06:30am 25.7 WNW 9 11 1009.4 - - - - - - - - -
19/06:00am 25.2 WNW 9 11 1009.0 - - - - - - - - -
19/05:30am 24.9 W 9 11 1008.7 - - - - - - - - -
19/05:00am 25.1 WNW 10 13 1008.3 - - - - - - - - -
19/04:30am 25.1 WNW 11 13 1008.2 - - - - - - - - -
19/04:00am 25.0 WNW 10 12 1008.2 - - - - - - - - -
19/03:30am 25.0 WNW 10 12 1008.2 - - - - - - - - -
19/03:00am 25.1 WNW 11 13 1008.1 - - - - - - - - -
19/02:30am 25.1 WNW 11 13 1008.0 - - - - - - - - -
19/02:00am 25.2 WNW 10 12 1008.2 - - - - - - - - -
19/01:30am 25.3 WNW 9 12 1008.2 - - - - - - - - -
19/01:00am 25.3 WNW 9 11 1008.2 - - - - - - - - -
19/12:30am 25.3 WNW 9 11 1008.4 - - - - - - - - -
19/12:00am 25.4 WNW 9 12 1008.6 - - - - - - - - -
 
Date/Time
WST
Temp

°C
Wind Pressure Rain
since 9am
mm
Weather Cloud Vis
km
Sea
Height
m
Swell
Dir
 
Speed
knots
Gust
knots
hPa Trend Height
m
Period
s
Dir
18/11:30pm 25.5 WNW 10 12 1008.8 - - - - - - - - -
18/11:00pm 25.5 W 10 13 1008.8 - - - - - - - - -
18/10:30pm 25.6 W 12 15 1008.6 - - - - - - - - -
18/10:00pm 25.7 WNW 13 16 1008.2 - - - - - - - - -
18/09:30pm 25.7 WNW 14 17 1008.0 - - - - - - - - -
18/09:00pm 25.9 WNW 15 17 1007.7 - - - - - - - - -
18/08:30pm 25.9 WNW 15 17 1007.5 - - - - - - - - -
18/08:00pm 26.0 WNW 15 19 1007.1 - - - - - - - - -
18/07:30pm 26.1 WNW 16 19 1006.7 - - - - - - - - -
18/07:00pm 26.1 WNW 17 20 1006.4 - - - - - - - - -
18/06:30pm 26.6 WNW 18 21 1005.9 - - - - - - - - -
18/06:00pm 27.2 WNW 16 19 1005.6 - - - - - - - - -
18/05:30pm 27.9 WNW 16 19 1005.3 - - - - - - - - -
18/05:00pm 28.8 W 16 20 1005.1 - - - - - - - - -
18/04:30pm 28.6 WNW 16 20 1005.2 - - - - - - - - -
18/04:00pm 29.3 W 16 20 1005.3 - - - - - - - - -
18/03:30pm 29.5 WNW 16 20 1005.5 - - - - - - - - -
18/03:00pm 29.7 W 16 19 1005.7 - - - - - - - - -
18/02:30pm 30.0 W 14 17 1005.9 - - - - - - - - -
18/02:00pm 30.3 W 15 19 1006.0 - - - - - - - - -
18/01:30pm 30.2 W 15 17 1006.1 - - - - - - - - -
18/01:00pm 31.1 W 16 19 1006.2 - - - - - - - - -
18/12:30pm 30.8 W 15 18 1006.6 - - - - - - - - -
18/12:00pm 30.1 WSW 16 19 1006.8 - - - - - - - - -
18/11:30am 30.2 W 15 18 1007.1 - - - - - - - - -
18/11:00am 29.6 W 16 19 1007.2 - - - - - - - - -
18/10:30am 29.6 W 16 19 1007.5 - - - - - - - - -
18/10:00am 29.3 W 16 18 1007.5 - - - - - - - - -
18/09:30am 28.7 W 16 19 1007.6 - - - - - - - - -
18/09:00am 28.6 W 16 18 1007.5 - - - - - - - - -
18/08:30am 28.0 W 16 19 1007.5 - - - - - - - - -
18/08:00am 27.5 W 16 20 1007.2 - - - - - - - - -
18/07:30am 27.1 W 15 17 1007.3 - - - - - - - - -
18/07:00am 26.5 W 14 17 1007.1 - - - - - - - - -
18/06:30am 25.7 W 14 17 1006.8 - - - - - - - - -
18/06:00am 25.3 W 16 19 1006.3 - - - - - - - - -
18/05:30am 25.1 W 17 21 1005.9 - - - - - - - - -
18/05:00am 25.2 W 18 21 1005.8 - - - - - - - - -
18/04:30am 25.1 WNW 17 22 1005.6 - - - - - - - - -
18/04:00am 25.2 W 16 21 1005.7 - - - - - - - - -
18/03:30am 25.4 WNW 14 17 1005.6 - - - - - - - - -
18/03:00am 25.5 WNW 15 18 1005.7 - - - - - - - - -
18/02:30am 25.6 WNW 14 17 1005.8 - - - - - - - - -
18/02:00am 25.4 WNW 14 16 1005.8 - - - - - - - - -
18/01:30am 25.6 WNW 15 17 1005.9 - - - - - - - - -
18/01:00am 25.6 WNW 16 19 1005.9 - - - - - - - - -
18/12:30am 25.7 WNW 15 18 1006.1 - - - - - - - - -
18/12:00am 25.8 WNW 16 20 1006.4 - - - - - - - - -
 
Date/Time
WST
Temp

°C
Wind Pressure Rain
since 9am
mm
Weather Cloud Vis
km
Sea
Height
m
Swell
Dir
 
Speed
knots
Gust
knots
hPa Trend Height
m
Period
s
Dir
17/11:30pm 25.8 WNW 16 20 1006.5 - - - - - - - - -
17/11:00pm 25.7 WNW 17 20 1006.5 - - - - - - - - -
17/10:30pm 25.8 WNW 16 19 1006.6 - - - - - - - - -
17/10:00pm 25.7 WNW 17 20 1006.3 - - - - - - - - -
17/09:30pm 25.8 WNW 16 19 1006.2 - - - - - - - - -
17/09:00pm 25.9 WNW 15 18 1006.0 - - - - - - - - -
17/08:30pm 25.9 WNW 14 18 1006.0 - - - - - - - - -
17/08:00pm 25.9 WNW 15 18 1005.3 - - - - - - - - -
17/07:30pm 26.0 WNW 17 19 1004.9 - - - - - - - - -
17/07:00pm 26.2 WNW 17 19 1004.3 - - - - - - - - -
17/06:30pm 26.6 WNW 17 20 1004.1 - - - - - - - - -
17/06:00pm 26.9 NW 17 20 1003.9 - - - - - - - - -
17/05:30pm 27.6 NW 17 20 1003.7 - - - - - - - - -
17/05:00pm 28.3 NW 17 21 1003.5 - - - - - - - - -
17/04:30pm 28.6 WNW 16 19 1003.2 - - - - - - - - -
17/04:00pm 28.8 WNW 17 20 1002.9 - - - - - - - - -
17/03:30pm 29.6 W 16 20 1003.2 - - - - - - - - -
17/03:00pm 30.1 WNW 15 18 1003.5 - - - - - - - - -
17/02:30pm 29.3 WNW 14 17 1003.9 - - - - - - - - -
17/02:00pm 29.6 WNW 14 18 1004.2 - - - - - - - - -
17/01:30pm 30.2 W 15 18 1004.6 - - - - - - - - -
17/01:00pm 30.2 W 14 18 1004.8 - - - - - - - - -
17/12:30pm 30.1 W 13 17 1005.1 - - - - - - - - -
17/12:00pm 29.7 W 15 18 1005.1 - - - - - - - - -
17/11:30am 29.5 W 16 20 1005.2 - - - - - - - - -

Other Formats:

Comma delimited format used in spreadsheet applications
http://www.bom.gov.au/fwo/IDW60701/IDW60701.94307.axf

JavaScript Object Notation format (JSON) in row-major order
http://www.bom.gov.au/fwo/IDW60701/IDW60701.94307.json